Time;durP1;ratioP1;P1;durP2;ratioP2;P2;SDS_P1;SDS_P2;PMS_P1;PMS_P2;Temp;Humidity;BMP_temperature;BMP_pressure;BME280_temperature;BME280_humidity;BME280_pressure;Samples;Min_cycle;Max_cycle;Signal;HPM_P1;HPM_P2
2023/03/28 00:01:32;;;;;;;4.20;2.50;;;;;3.70;99415.00;;;;5026415;28;20073;-61
2023/03/28 00:03:58;;;;;;;5.30;3.20;;;;;3.60;99419.00;;;;5022274;28;20041;-60
2023/03/28 00:06:26;;;;;;;6.53;2.50;;;;;3.60;99420.00;;;;5021245;28;20065;-60
2023/03/28 00:08:52;;;;;;;3.63;2.58;;;;;3.50;99422.00;;;;5020391;28;20128;-61
2023/03/28 00:11:21;;;;;;;5.15;2.67;;;;;3.50;99424.00;;;;5020642;28;20050;-61
2023/03/28 00:13:52;;;;;;;3.03;2.70;;;;;3.40;99428.00;;;;5020634;28;20034;-60
2023/03/28 00:16:19;;;;;;;3.47;2.58;;;;;3.40;99427.00;;;;5019350;28;20053;-61
2023/03/28 00:18:45;;;;;;;3.30;2.20;;;;;3.30;99429.00;;;;5019541;28;20050;-61
2023/03/28 00:21:23;;;;;;;4.90;2.78;;;;;3.30;99424.00;;;;5018789;28;20056;-61
2023/03/28 00:23:52;;;;;;;3.83;2.47;;;;;3.30;99432.00;;;;5019063;28;20077;-60
2023/03/28 00:26:20;;;;;;;3.45;2.60;;;;;3.20;99434.00;;;;5017889;28;20487;-60
2023/03/28 00:28:47;;;;;;;4.20;2.67;;;;;3.20;99433.00;;;;5017414;28;20120;-60
2023/03/28 00:31:14;;;;;;;6.72;2.63;;;;;3.10;99436.00;;;;5017140;28;20241;-60
2023/03/28 00:33:41;;;;;;;3.72;2.40;;;;;3.00;99441.00;;;;5017549;28;20490;-61
2023/03/28 00:36:09;;;;;;;4.30;3.10;;;;;3.00;99440.00;;;;5016051;28;20049;-61
2023/03/28 00:38:37;;;;;;;6.07;2.75;;;;;3.00;99442.00;;;;5016904;28;20499;-60
2023/03/28 00:41:04;;;;;;;7.43;3.03;;;;;3.10;99430.00;;;;5015490;28;20045;-61
2023/03/28 00:43:36;;;;;;;4.45;2.90;;;;;3.10;99441.00;;;;5020402;28;20049;-61
2023/03/28 00:46:06;;;;;;;3.90;2.38;;;;;3.00;99443.00;;;;5021325;28;20069;-59
2023/03/28 00:48:35;;;;;;;4.85;2.72;;;;;2.90;99446.00;;;;5022801;28;20060;-61
2023/03/28 00:51:04;;;;;;;2.78;2.47;;;;;2.80;99440.00;;;;5020101;28;20092;-59
2023/03/28 00:53:32;;;;;;;3.70;2.42;;;;;2.70;99432.00;;;;5017210;28;20046;-59
2023/03/28 00:56:07;;;;;;;6.43;2.92;;;;;2.50;99434.00;;;;5013139;28;20096;-60
2023/03/28 00:58:40;;;;;;;4.53;2.65;;;;;2.60;99436.00;;;;5012075;28;20069;-61
2023/03/28 01:01:10;;;;;;;6.60;2.92;;;;;2.60;99429.00;;;;5013201;28;20046;-60
2023/03/28 01:03:44;;;;;;;4.68;2.60;;;;;2.60;99433.00;;;;5011905;28;20092;-60
2023/03/28 01:06:15;;;;;;;5.25;3.17;;;;;2.70;99435.00;;;;5012116;28;20050;-59
2023/03/28 01:08:45;;;;;;;4.22;2.90;;;;;2.80;99433.00;;;;5012021;28;20593;-60
2023/03/28 01:11:14;;;;;;;7.35;2.83;;;;;2.70;99435.00;;;;5012954;28;20478;-60
2023/03/28 01:13:46;;;;;;;5.20;2.92;;;;;2.70;99432.00;;;;5012463;28;20052;-59
2023/03/28 01:16:14;;;;;;;6.40;3.00;;;;;2.80;99431.00;;;;5013224;28;20048;-60
2023/03/28 01:18:45;;;;;;;7.03;2.85;;;;;2.70;99436.00;;;;5012505;28;20514;-59
2023/03/28 01:21:37;;;;;;;6.75;3.63;;;;;2.70;99428.00;;;;5011401;28;20100;-61
2023/03/28 01:24:56;;;;;;;4.53;2.97;;;;;2.80;99437.00;;;;5011496;28;20427;-60
2023/03/28 01:28:00;;;;;;;4.32;2.90;;;;;2.80;99440.00;;;;5011627;28;20054;-60
2023/03/28 01:30:57;;;;;;;6.97;3.17;;;;;2.80;99450.00;;;;4987491;28;20069;-58
2023/03/28 01:33:59;;;;;;;12.05;3.63;;;;;2.60;99441.00;;;;5008946;28;20454;-61
2023/03/28 01:36:44;;;;;;;6.60;2.70;;;;;2.60;99446.00;;;;5023072;28;20045;-60
2023/03/28 01:39:17;;;;;;;4.13;2.63;;;;;2.50;99440.00;;;;5021439;28;20046;-60
2023/03/28 01:41:57;;;;;;;6.80;3.10;;;;;2.40;99432.00;;;;5012167;28;20494;-60
2023/03/28 01:44:58;;;;;;;6.03;3.15;;;;;2.30;99430.00;;;;5012008;28;20198;-60
2023/03/28 01:47:46;;;;;;;7.07;3.00;;;;;2.10;99432.00;;;;5008936;28;20049;-59
2023/03/28 01:50:17;;;;;;;6.18;2.88;;;;;2.00;99433.00;;;;5012319;28;20060;-59
2023/03/28 01:52:55;;;;;;;4.80;2.83;;;;;2.10;99434.00;;;;5012987;28;20056;-60
2023/03/28 01:55:33;;;;;;;4.85;3.13;;;;;2.10;99426.00;;;;5013238;28;20042;-60
2023/03/28 01:58:20;;;;;;;4.47;2.90;;;;;2.10;99435.00;;;;5011316;28;20502;-61
2023/03/28 02:01:04;;;;;;;7.05;2.92;;;;;2.10;99434.00;;;;5010826;28;20140;-58
2023/03/28 02:03:35;;;;;;;5.97;2.88;;;;;2.20;99430.00;;;;5011119;28;20073;-59
2023/03/28 02:06:16;;;;;;;5.55;3.05;;;;;2.30;99437.00;;;;5011344;28;20049;-60
2023/03/28 02:08:44;;;;;;;3.67;2.90;;;;;2.40;99435.00;;;;5012020;28;20053;-58
2023/03/28 02:11:21;;;;;;;5.03;3.20;;;;;2.40;99439.00;;;;5011110;28;20046;-58
2023/03/28 02:14:26;;;;;;;6.57;3.28;;;;;2.20;99436.00;;;;5011202;28;20050;-58
2023/03/28 02:17:18;;;;;;;10.20;3.30;;;;;2.00;99434.00;;;;5010998;28;20140;-60
2023/03/28 02:20:10;;;;;;;10.68;3.75;;;;;2.00;99436.00;;;;5011222;28;20046;-61
2023/03/28 02:23:12;;;;;;;5.50;3.60;;;;;1.90;99438.00;;;;5011652;28;20080;-59
2023/03/28 02:25:59;;;;;;;6.75;3.55;;;;;2.00;99441.00;;;;5011896;28;20137;-59
2023/03/28 02:28:42;;;;;;;3.10;2.75;;;;;2.00;99428.00;;;;5027313;28;20548;-61
2023/03/28 02:31:14;;;;;;;7.03;3.50;;;;;1.90;99425.00;;;;5011149;28;20049;-61
2023/03/28 02:33:46;;;;;;;6.10;3.30;;;;;1.80;99435.00;;;;5011038;28;20315;-60
2023/03/28 02:36:33;;;;;;;6.50;3.67;;;;;1.70;99423.00;;;;5012009;28;20414;-60
2023/03/28 02:39:39;;;;;;;8.18;3.83;;;;;1.80;99418.00;;;;5011603;28;20061;-60
2023/03/28 02:42:20;;;;;;;7.30;4.37;;;;;1.80;99417.00;;;;5013772;28;20053;-59
2023/03/28 02:45:22;;;;;;;9.07;4.65;;;;;1.80;99419.00;;;;5014255;28;20292;-61
2023/03/28 02:48:13;;;;;;;5.22;3.03;;;;;1.80;99418.00;;;;5014216;28;20491;-60
2023/03/28 02:51:02;;;;;;;5.82;3.17;;;;;1.90;99418.00;;;;5014947;28;20042;-60
2023/03/28 02:54:13;;;;;;;7.55;3.60;;;;;1.80;99419.00;;;;5015383;28;20096;-61
2023/03/28 02:56:43;;;;;;;4.50;2.72;;;;;1.60;99407.00;;;;4954817;29;20572;-59
2023/03/28 02:59:47;;;;;;;9.82;4.70;;;;;1.50;99413.00;;;;4994352;28;20073;-61
2023/03/28 03:02:19;;;;;;;7.13;3.28;;;;;1.50;99418.00;;;;5013966;28;20049;-60
2023/03/28 03:04:49;;;;;;;4.28;3.00;;;;;1.50;99408.00;;;;5015327;28;20073;-59
2023/03/28 03:07:17;;;;;;;3.97;2.13;;;;;1.50;99410.00;;;;5030391;28;20112;-60
2023/03/28 03:09:45;;;;;;;5.40;2.92;;;;;1.50;99410.00;;;;5012974;28;20064;-61
2023/03/28 03:12:12;;;;;;;4.30;2.55;;;;;1.40;99411.00;;;;5013585;28;20499;-59
2023/03/28 03:14:39;;;;;;;5.10;2.10;;;;;1.40;99407.00;;;;5013944;28;20052;-61
2023/03/28 03:17:28;;;;;;;3.60;1.90;;;;;1.40;99412.00;;;;5014156;28;20092;-61
2023/03/28 03:19:55;;;;;;;8.25;2.35;;;;;1.30;99412.00;;;;5012817;28;20049;-61
2023/03/28 03:22:33;;;;;;;3.70;2.20;;;;;1.30;99410.00;;;;5013472;28;20669;-61
2023/03/28 03:25:06;;;;;;;3.13;2.38;;;;;1.20;99416.00;;;;5013464;28;20534;-61
2023/03/28 03:27:56;;;;;;;4.03;2.53;;;;;1.20;99412.00;;;;5006458;28;20060;-61
2023/03/28 03:30:23;;;;;;;4.18;2.50;;;;;1.10;99406.00;;;;5014050;28;20120;-60
2023/03/28 03:33:09;;;;;;;7.00;2.85;;;;;1.00;99406.00;;;;5013266;28;20061;-59
2023/03/28 03:35:37;;;;;;;5.28;2.78;;;;;1.00;99403.00;;;;5014348;28;20069;-59
2023/03/28 03:38:05;;;;;;;5.70;2.63;;;;;1.00;99401.00;;;;5013100;28;20061;-60
2023/03/28 03:40:32;;;;;;;5.07;2.42;;;;;1.10;99407.00;;;;5012657;28;20073;-60
2023/03/28 03:43:00;;;;;;;4.28;2.10;;;;;1.10;99406.00;;;;5012955;28;20052;-59
2023/03/28 03:45:27;;;;;;;3.42;2.03;;;;;1.10;99403.00;;;;5013503;28;20411;-59
2023/03/28 03:47:53;;;;;;;6.40;2.58;;;;;1.10;99429.00;;;;5013325;28;20104;-59
2023/03/28 03:50:20;;;;;;;4.70;2.05;;;;;1.10;99417.00;;;;5012252;28;20085;-60
2023/03/28 03:52:47;;;;;;;3.60;1.90;;;;;1.00;99418.00;;;;5012386;28;20048;-60
2023/03/28 03:55:13;;;;;;;6.85;2.60;;;;;1.00;99417.00;;;;5013903;28;20041;-60
2023/03/28 03:57:41;;;;;;;6.22;2.97;;;;;0.90;99425.00;;;;5012888;28;20092;-61
2023/03/28 04:00:10;;;;;;;5.45;2.28;;;;;0.90;99421.00;;;;5012071;28;20038;-59
2023/03/28 04:02:47;;;;;;;5.38;2.30;;;;;0.90;99423.00;;;;5013846;28;20133;-61
2023/03/28 04:05:21;;;;;;;5.63;2.20;;;;;0.80;99422.00;;;;5012649;28;20045;-61
2023/03/28 04:08:00;;;;;;;7.57;2.22;;;;;0.70;99421.00;;;;5012522;28;20054;-60
2023/03/28 04:10:32;;;;;;;9.50;2.50;;;;;0.70;99416.00;;;;5012253;28;20065;-59
2023/03/28 04:12:59;;;;;;;4.40;2.70;;;;;0.70;99427.00;;;;4996357;28;20072;-61
2023/03/28 04:15:25;;;;;;;3.63;1.80;;;;;0.80;99423.00;;;;5012337;28;20050;-58
2023/03/28 04:18:05;;;;;;;4.65;2.33;;;;;0.70;99424.00;;;;5012510;28;20064;-58
2023/03/28 04:20:40;;;;;;;4.53;2.17;;;;;0.70;99426.00;;;;5013469;28;20050;-59
2023/03/28 04:23:08;;;;;;;4.50;2.45;;;;;0.70;99428.00;;;;5014032;28;20121;-59
2023/03/28 04:25:40;;;;;;;5.40;2.03;;;;;0.60;99433.00;;;;5012429;28;20045;-58
2023/03/28 04:28:11;;;;;;;68.90;26.25;;;;;0.70;99432.00;;;;5012112;28;20061;-59
2023/03/28 04:31:10;;;;;;;8.07;4.28;;;;;0.90;99439.00;;;;5000245;28;20077;-60
2023/03/28 04:34:04;;;;;;;9.18;4.85;;;;;0.90;99440.00;;;;5013069;28;20057;-60
2023/03/28 04:36:36;;;;;;;7.57;4.20;;;;;0.90;99440.00;;;;5012058;28;20045;-61
2023/03/28 04:39:03;;;;;;;8.23;5.45;;;;;0.90;99444.00;;;;5011291;28;20050;-61
2023/03/28 04:41:54;;;;;;;9.35;4.55;;;;;0.90;99447.00;;;;4985134;28;20595;-60
2023/03/28 04:44:43;;;;;;;7.07;3.53;;;;;1.10;99457.00;;;;5028388;28;20041;-60
2023/03/28 04:47:11;;;;;;;5.40;3.63;;;;;1.10;99443.00;;;;5028223;28;20061;-61
2023/03/28 04:49:38;;;;;;;8.07;4.05;;;;;1.10;99446.00;;;;5011126;28;20046;-60
2023/03/28 04:52:05;;;;;;;6.00;4.05;;;;;1.10;99455.00;;;;5011768;28;20054;-60
2023/03/28 04:54:33;;;;;;;5.97;3.45;;;;;1.00;99453.00;;;;5011820;28;20479;-60
2023/03/28 04:57:05;;;;;;;8.60;3.67;;;;;0.90;99450.00;;;;5028470;28;20053;-61
2023/03/28 04:59:40;;;;;;;7.90;3.60;;;;;1.00;99450.00;;;;5027634;28;20104;-60
2023/03/28 05:02:09;;;;;;;10.75;5.32;;;;;1.00;99460.00;;;;5010969;28;20046;-61
2023/03/28 05:04:41;;;;;;;5.68;3.58;;;;;1.10;99463.00;;;;5027536;28;20042;-60
2023/03/28 05:07:08;;;;;;;7.63;3.75;;;;;1.10;99473.00;;;;5011719;28;20052;-59
2023/03/28 05:09:35;;;;;;;9.40;4.30;;;;;1.10;99474.00;;;;5012334;28;20045;-60
2023/03/28 05:12:01;;;;;;;7.03;4.70;;;;;1.10;99472.00;;;;5011431;28;20053;-59
2023/03/28 05:14:29;;;;;;;6.65;4.00;;;;;1.20;99476.00;;;;5011626;28;20056;-60
2023/03/28 05:17:08;;;;;;;9.68;4.57;;;;;1.00;99474.00;;;;5011619;28;20129;-59
2023/03/28 05:19:47;;;;;;;6.68;3.38;;;;;0.70;99469.00;;;;5011078;28;20050;-58
2023/03/28 05:22:17;;;;;;;8.15;3.38;;;;;0.60;99470.00;;;;5027775;28;20187;-60
2023/03/28 05:24:43;;;;;;;4.53;3.20;;;;;0.60;99458.00;;;;5012712;28;20049;-59
2023/03/28 05:27:16;;;;;;;6.38;3.85;;;;;0.80;99468.00;;;;5012813;28;20458;-59
2023/03/28 05:29:43;;;;;;;6.68;3.20;;;;;0.80;99471.00;;;;5013889;28;20053;-59
2023/03/28 05:32:11;;;;;;;6.35;3.63;;;;;0.70;99474.00;;;;5016937;28;20566;-60
2023/03/28 05:34:39;;;;;;;6.45;3.97;;;;;0.70;99469.00;;;;5022592;28;20065;-59
2023/03/28 05:37:05;;;;;;;6.07;3.20;;;;;0.80;99484.00;;;;5013304;28;20127;-59
2023/03/28 05:39:46;;;;;;;8.18;3.83;;;;;1.10;99490.00;;;;5027146;28;20054;-60
2023/03/28 05:42:13;;;;;;;9.43;3.83;;;;;1.20;99484.00;;;;5011429;28;20049;-60
2023/03/28 05:44:39;;;;;;;6.38;3.47;;;;;1.10;99495.00;;;;5012552;28;20042;-60
2023/03/28 05:47:15;;;;;;;8.02;3.50;;;;;1.00;99484.00;;;;5012674;28;20056;-60
2023/03/28 05:49:42;;;;;;;10.82;3.85;;;;;1.00;99489.00;;;;5010454;28;20042;-60
2023/03/28 05:52:09;;;;;;;7.68;3.85;;;;;0.90;99481.00;;;;5011052;28;20042;-60
2023/03/28 05:54:37;;;;;;;9.35;3.67;;;;;0.90;99479.00;;;;5011250;28;20136;-60
2023/03/28 05:57:04;;;;;;;4.03;2.65;;;;;0.90;99479.00;;;;5027709;28;20049;-61
2023/03/28 05:59:31;;;;;;;8.07;3.78;;;;;0.90;99470.00;;;;5010712;28;20487;-60
2023/03/28 06:01:59;;;;;;;8.80;4.03;;;;;0.90;99478.00;;;;5011107;28;20561;-60
2023/03/28 06:04:26;;;;;;;4.90;2.92;;;;;0.90;99480.00;;;;5011161;28;20057;-62
2023/03/28 06:06:54;;;;;;;7.82;3.83;;;;;0.90;99474.00;;;;5010981;28;20097;-60
2023/03/28 06:09:25;;;;;;;4.78;3.58;;;;;1.10;99470.00;;;;5010222;28;20042;-60
2023/03/28 06:12:00;;;;;;;6.80;3.00;;;;;1.10;99469.00;;;;5027346;28;20697;-60
2023/03/28 06:14:28;;;;;;;6.57;2.80;;;;;1.20;99471.00;;;;5011495;28;20081;-60
2023/03/28 06:16:57;;;;;;;4.95;2.97;;;;;1.20;99474.00;;;;5014918;28;20050;-60
2023/03/28 06:19:26;;;;;;;8.13;4.28;;;;;1.20;99482.00;;;;5014158;28;20050;-60
2023/03/28 06:21:54;;;;;;;6.93;4.07;;;;;1.30;99486.00;;;;5014679;28;20140;-59
2023/03/28 06:24:20;;;;;;;5.03;2.92;;;;;1.40;99488.00;;;;5015819;28;20149;-60
2023/03/28 06:26:48;;;;;;;7.30;3.00;;;;;1.50;99491.00;;;;5018798;28;20052;-60
2023/03/28 06:29:18;;;;;;;9.10;3.28;;;;;1.60;99498.00;;;;5015504;28;20100;-60
2023/03/28 06:31:46;;;;;;;3.53;2.50;;;;;1.60;99499.00;;;;5014424;28;20054;-60
2023/03/28 06:34:13;;;;;;;7.25;3.22;;;;;1.70;99489.00;;;;5014479;28;20088;-61
2023/03/28 06:36:53;;;;;;;9.80;3.53;;;;;1.70;99499.00;;;;5014349;28;20530;-60
2023/03/28 06:39:20;;;;;;;8.73;4.00;;;;;1.80;99504.00;;;;5013733;28;20136;-59
2023/03/28 06:41:49;;;;;;;9.10;4.10;;;;;1.90;99500.00;;;;5014351;28;20056;-60
2023/03/28 06:44:17;;;;;;;5.35;3.42;;;;;2.00;99503.00;;;;5014087;28;20123;-57
2023/03/28 06:47:01;;;;;;;4.22;3.08;;;;;2.10;99504.00;;;;5014326;28;20038;-58
2023/03/28 06:49:28;;;;;;;6.13;3.55;;;;;2.20;99508.00;;;;5030047;28;20128;-59
2023/03/28 06:52:25;;;;;;;6.07;3.10;;;;;2.30;99509.00;;;;5014063;28;20046;-59
2023/03/28 06:54:53;;;;;;;8.07;3.45;;;;;2.40;99512.00;;;;5014171;28;20050;-58
2023/03/28 06:57:20;;;;;;;9.82;3.85;;;;;2.50;99515.00;;;;5014468;28;20042;-59
2023/03/28 06:59:48;;;;;;;6.95;4.43;;;;;2.60;99519.00;;;;5013760;28;20097;-62
2023/03/28 07:02:20;;;;;;;7.78;3.72;;;;;2.80;99521.00;;;;4998950;28;20076;-62
2023/03/28 07:04:47;;;;;;;7.32;4.07;;;;;2.90;99526.00;;;;5014700;28;20049;-59
2023/03/28 07:07:14;;;;;;;6.55;4.30;;;;;3.00;99519.00;;;;5030550;28;20073;-59
2023/03/28 07:09:41;;;;;;;12.23;4.65;;;;;3.00;99518.00;;;;5029919;28;20074;-60
2023/03/28 07:12:10;;;;;;;7.70;4.60;;;;;3.10;99523.00;;;;5014030;28;20466;-61
2023/03/28 07:14:39;;;;;;;7.18;3.30;;;;;3.30;99528.00;;;;5030568;28;20582;-60
2023/03/28 07:17:06;;;;;;;6.50;3.72;;;;;3.40;99531.00;;;;5030287;28;20052;-58
2023/03/28 07:19:33;;;;;;;8.30;4.07;;;;;3.40;99527.00;;;;5029609;28;20042;-61
2023/03/28 07:21:59;;;;;;;8.20;4.20;;;;;3.50;99525.00;;;;5015123;28;20042;-59
2023/03/28 07:24:26;;;;;;;8.73;4.55;;;;;3.60;99525.00;;;;5014068;28;20060;-58
2023/03/28 07:27:13;;;;;;;12.02;4.57;;;;;3.80;99526.00;;;;5012259;28;20570;-61
2023/03/28 07:29:44;;;;;;;9.00;4.20;;;;;3.90;99533.00;;;;5030199;28;20050;-59
2023/03/28 07:32:11;;;;;;;7.47;4.10;;;;;3.90;99526.00;;;;5030017;28;20049;-60
2023/03/28 07:34:37;;;;;;;7.78;3.80;;;;;4.10;99541.00;;;;5015347;28;20056;-62
2023/03/28 07:37:07;;;;;;;9.25;4.20;;;;;4.10;99531.00;;;;5013544;28;20096;-62
2023/03/28 07:39:44;;;;;;;8.63;4.32;;;;;4.10;99525.00;;;;5012926;28;20085;-59
2023/03/28 07:42:15;;;;;;;9.98;4.38;;;;;4.20;99529.00;;;;5030291;28;20045;-61
2023/03/28 07:44:42;;;;;;;7.32;4.03;;;;;4.30;99537.00;;;;5015043;28;20145;-63
2023/03/28 07:47:09;;;;;;;8.93;3.92;;;;;4.40;99541.00;;;;5014628;28;20540;-62
2023/03/28 07:49:35;;;;;;;14.90;4.63;;;;;4.50;99546.00;;;;5013844;28;20046;-62
2023/03/28 07:52:03;;;;;;;9.10;4.18;;;;;4.50;99545.00;;;;5014735;28;20068;-65
2023/03/28 07:54:32;;;;;;;7.60;3.80;;;;;4.50;99550.00;;;;5014057;28;20517;-59
2023/03/28 07:56:58;;;;;;;14.98;4.75;;;;;4.60;99545.00;;;;5015542;28;20072;-59
2023/03/28 07:59:43;;;;;;;11.38;4.65;;;;;4.80;99550.00;;;;4999559;28;20093;-59
2023/03/28 08:02:11;;;;;;;8.65;4.22;;;;;5.00;99556.00;;;;5014049;28;20052;-60
2023/03/28 08:04:38;;;;;;;11.07;3.75;;;;;5.10;99562.00;;;;5014038;28;20474;-60
2023/03/28 08:07:08;;;;;;;9.07;3.50;;;;;5.10;99564.00;;;;5030455;28;20527;-60
2023/03/28 08:09:37;;;;;;;10.68;3.80;;;;;5.10;99566.00;;;;5012667;28;20046;-59
2023/03/28 08:12:14;;;;;;;12.10;3.30;;;;;5.20;99566.00;;;;5014452;28;20046;-61
2023/03/28 08:14:41;;;;;;;9.18;3.42;;;;;5.50;99566.00;;;;5014294;28;20058;-60
2023/03/28 08:17:09;;;;;;;6.57;2.97;;;;;5.50;99577.00;;;;5013379;28;20038;-59
2023/03/28 08:19:36;;;;;;;7.10;2.88;;;;;5.50;99571.00;;;;5029821;28;20073;-59
2023/03/28 08:22:11;;;;;;;10.60;3.00;;;;;5.60;99566.00;;;;5014536;28;20088;-62
2023/03/28 08:25:08;;;;;;;7.45;3.40;;;;;5.70;99573.00;;;;5005688;28;20104;-60
2023/03/28 08:27:36;;;;;;;8.90;3.63;;;;;5.80;99564.00;;;;5013989;28;20064;-58
2023/03/28 08:30:09;;;;;;;11.73;3.40;;;;;5.90;99571.00;;;;5012404;28;20057;-60
2023/03/28 08:32:44;;;;;;;8.02;3.45;;;;;6.20;99555.00;;;;5013226;28;20104;-58
2023/03/28 08:35:15;;;;;;;7.18;3.45;;;;;6.40;99568.00;;;;5012271;28;20072;-58
2023/03/28 08:37:41;;;;;;;9.80;3.40;;;;;6.30;99568.00;;;;5012245;28;20066;-58
2023/03/28 08:40:15;;;;;;;7.10;2.90;;;;;6.30;99565.00;;;;5011339;28;20507;-59
2023/03/28 08:43:16;;;;;;;8.57;2.47;;;;;6.30;99575.00;;;;5011961;28;20046;-60
2023/03/28 08:45:55;;;;;;;9.57;2.95;;;;;6.40;99561.00;;;;4980631;28;20348;-59
2023/03/28 08:48:29;;;;;;;6.97;3.17;;;;;6.60;99560.00;;;;5013681;28;20104;-61
2023/03/28 08:51:02;;;;;;;14.55;4.50;;;;;6.80;99575.00;;;;5013046;28;20088;-58
2023/03/28 08:53:43;;;;;;;9.68;3.45;;;;;7.00;99571.00;;;;5013588;28;20042;-59
2023/03/28 08:56:14;;;;;;;7.50;2.58;;;;;7.20;99570.00;;;;5012859;28;20038;-60
2023/03/28 08:59:05;;;;;;;7.00;2.47;;;;;7.20;99570.00;;;;5012219;28;20050;-60
2023/03/28 09:01:33;;;;;;;6.28;2.42;;;;;7.10;99576.00;;;;5012423;28;20052;-58
2023/03/28 09:04:00;;;;;;;5.93;2.20;;;;;7.30;99578.00;;;;5013063;28;20057;-62
2023/03/28 09:06:43;;;;;;;9.10;2.47;;;;;7.40;99573.00;;;;5013791;28;20069;-60
2023/03/28 09:09:26;;;;;;;7.63;2.33;;;;;7.30;99573.00;;;;5013231;28;20049;-60
2023/03/28 09:12:25;;;;;;;3.47;2.10;;;;;7.30;99573.00;;;;5014958;28;20042;-61
2023/03/28 09:15:23;;;;;;;9.50;2.88;;;;;7.50;99570.00;;;;5013816;28;20073;-61
2023/03/28 09:18:17;;;;;;;4.97;2.38;;;;;7.80;99569.00;;;;5012928;28;20046;-61
2023/03/28 09:21:07;;;;;;;8.10;2.17;;;;;7.90;99569.00;;;;5012747;28;20442;-58
2023/03/28 09:24:07;;;;;;;6.38;2.35;;;;;8.00;99575.00;;;;5012179;28;20076;-59
2023/03/28 09:27:05;;;;;;;7.10;2.50;;;;;8.10;99572.00;;;;5013425;28;20152;-62
2023/03/28 09:29:38;;;;;;;7.95;2.92;;;;;8.30;99569.00;;;;5027579;28;20099;-59
2023/03/28 09:32:18;;;;;;;6.32;1.88;;;;;8.50;99562.00;;;;5017239;28;20061;-60
2023/03/28 09:34:48;;;;;;;4.22;1.60;;;;;8.50;99570.00;;;;5016960;28;20050;-63
2023/03/28 09:37:30;;;;;;;2.55;1.38;;;;;8.50;99561.00;;;;5013536;28;20045;-62
2023/03/28 09:40:11;;;;;;;4.40;1.73;;;;;8.60;99556.00;;;;5027924;28;20042;-61
2023/03/28 09:43:19;;;;;;;5.15;1.65;;;;;8.80;99562.00;;;;5011718;28;20100;-59
2023/03/28 09:46:30;;;;;;;5.38;1.83;;;;;8.80;99551.00;;;;4984462;28;20503;-60
2023/03/28 09:49:21;;;;;;;3.78;1.40;;;;;8.80;99556.00;;;;5013371;28;20139;-59
2023/03/28 09:51:55;;;;;;;5.75;1.73;;;;;8.70;99566.00;;;;5018107;28;20049;-59
2023/03/28 09:54:29;;;;;;;5.00;2.05;;;;;8.90;99549.00;;;;5034662;28;20129;-59
2023/03/28 09:57:01;;;;;;;3.50;1.27;;;;;9.10;99557.00;;;;5019219;28;20061;-59
2023/03/28 09:59:40;;;;;;;3.80;2.25;;;;;9.20;99543.00;;;;5020555;28;20497;-57
2023/03/28 10:02:27;;;;;;;2.78;1.13;;;;;9.40;99554.00;;;;5021076;28;20045;-62
2023/03/28 10:04:57;;;;;;;4.25;1.60;;;;;9.40;99544.00;;;;5018421;28;20433;-59
2023/03/28 10:07:42;;;;;;;2.17;1.08;;;;;9.60;99554.00;;;;5019892;28;20042;-59
2023/03/28 10:10:23;;;;;;;2.67;1.27;;;;;9.80;99550.00;;;;5017083;28;20050;-60
2023/03/28 10:13:01;;;;;;;3.58;1.30;;;;;9.90;99547.00;;;;5020564;28;20081;-61
2023/03/28 10:15:39;;;;;;;1.52;1.00;;;;;9.90;99539.00;;;;5039048;28;20121;-59
2023/03/28 10:18:32;;;;;;;2.55;1.33;;;;;9.90;99543.00;;;;5018063;28;20060;-58
2023/03/28 10:21:37;;;;;;;3.15;1.77;;;;;10.10;99531.00;;;;4958122;28;20484;-56
2023/03/28 10:24:25;;;;;;;4.70;1.40;;;;;10.30;99546.00;;;;4958176;28;20480;-60
2023/03/28 10:27:06;;;;;;;3.03;1.15;;;;;10.40;99553.00;;;;4988851;28;20045;-61
2023/03/28 10:29:35;;;;;;;2.58;1.08;;;;;10.50;99543.00;;;;5016907;28;20049;-60
2023/03/28 10:32:04;;;;;;;2.55;1.10;;;;;10.50;99547.00;;;;5022522;28;20458;-61
2023/03/28 10:35:01;;;;;;;3.92;1.20;;;;;10.80;99534.00;;;;5019966;28;20053;-59
2023/03/28 10:37:41;;;;;;;2.72;1.33;;;;;11.00;99539.00;;;;5017564;28;20100;-59
2023/03/28 10:40:28;;;;;;;2.05;1.25;;;;;11.10;99532.00;;;;5016736;28;20085;-59
2023/03/28 10:43:14;;;;;;;7.47;1.88;;;;;11.30;99529.00;;;;5018979;28;20056;-58
2023/03/28 10:46:18;;;;;;;3.60;1.48;;;;;11.40;99529.00;;;;5017213;28;20046;-59
2023/03/28 10:49:01;;;;;;;;;;;;;11.30;99528.00;;;;5034140;28;20042;-56
2023/03/28 10:51:31;;;;;;;3.92;1.10;;;;;11.30;99529.00;;;;5018024;28;19925;-60
2023/03/28 10:54:06;;;;;;;3.08;1.73;;;;;11.20;99517.00;;;;5017734;28;20141;-58
2023/03/28 10:56:53;;;;;;;3.33;1.73;;;;;11.30;99524.00;;;;5017950;28;20057;-58
2023/03/28 10:59:52;;;;;;;5.60;2.45;;;;;11.50;99511.00;;;;5017454;28;20499;-59
2023/03/28 11:02:51;;;;;;;3.03;1.60;;;;;11.50;99514.00;;;;5033078;28;20062;-62
2023/03/28 11:05:36;;;;;;;5.53;1.80;;;;;11.50;99511.00;;;;5020249;28;20053;-63
2023/03/28 11:08:13;;;;;;;3.33;1.52;;;;;11.50;99505.00;;;;5036651;28;20289;-62
2023/03/28 11:11:12;;;;;;;4.80;1.67;;;;;11.60;99511.00;;;;5019768;28;20430;-63
2023/03/28 11:14:10;;;;;;;3.92;1.52;;;;;11.70;99512.00;;;;5015297;28;20076;-60
2023/03/28 11:17:04;;;;;;;4.55;2.63;;;;;11.80;99502.00;;;;5011203;28;20070;-61
2023/03/28 11:20:09;;;;;;;3.75;1.45;;;;;12.00;99507.00;;;;5030060;28;20100;-63
2023/03/28 11:22:56;;;;;;;3.55;1.58;;;;;12.00;99506.00;;;;5015924;28;20046;-58
2023/03/28 11:25:50;;;;;;;3.42;1.20;;;;;12.00;99490.00;;;;5013748;28;20077;-60
2023/03/28 11:28:45;;;;;;;3.95;1.48;;;;;12.10;99481.00;;;;5014116;28;20056;-60
2023/03/28 11:31:25;;;;;;;4.95;1.80;;;;;12.00;99481.00;;;;5031575;28;20077;-63
2023/03/28 11:34:08;;;;;;;2.92;1.20;;;;;12.10;99470.00;;;;5016401;28;20092;-58
2023/03/28 11:37:09;;;;;;;13.30;6.10;;;;;12.30;99478.00;;;;5013166;28;20046;-58
2023/03/28 11:40:12;;;;;;;1.92;1.40;;;;;12.30;99471.00;;;;5014066;28;20448;-61
2023/03/28 11:42:59;;;;;;;3.30;1.40;;;;;12.10;99461.00;;;;5013378;28;20598;-57
2023/03/28 11:45:31;;;;;;;1.77;1.25;;;;;12.00;99457.00;;;;5015606;28;20057;-62
2023/03/28 11:48:40;;;;;;;3.67;1.25;;;;;11.90;99449.00;;;;5034777;28;20045;-63
2023/03/28 11:51:32;;;;;;;5.03;1.60;;;;;12.10;99453.00;;;;5033244;28;20045;-63
2023/03/28 11:54:08;;;;;;;5.13;1.95;;;;;12.40;99456.00;;;;5017232;28;20518;-62
2023/03/28 11:56:57;;;;;;;5.68;2.10;;;;;12.50;99457.00;;;;5016540;28;20056;-62
2023/03/28 11:59:42;;;;;;;3.90;1.58;;;;;12.60;99459.00;;;;5021267;28;20050;-61
2023/03/28 12:02:16;;;;;;;1.27;1.10;;;;;12.60;99462.00;;;;5021709;28;20045;-61
2023/03/28 12:05:17;;;;;;;4.28;2.17;;;;;12.60;99456.00;;;;5006601;28;20114;-61
2023/03/28 12:07:53;;;;;;;3.33;1.35;;;;;12.60;99448.00;;;;5014532;28;20407;-63
2023/03/28 12:10:34;;;;;;;2.75;1.80;;;;;12.40;99450.00;;;;5018883;28;20042;-61
2023/03/28 12:13:10;;;;;;;2.38;1.40;;;;;12.50;99438.00;;;;5015039;28;20049;-60
2023/03/28 12:15:46;;;;;;;3.95;1.30;;;;;12.40;99436.00;;;;5015386;28;20046;-59
2023/03/28 12:18:57;;;;;;;4.13;1.52;;;;;12.60;99420.00;;;;5017269;28;20041;-61
2023/03/28 12:21:43;;;;;;;3.13;1.85;;;;;12.70;99423.00;;;;4989130;28;20053;-60
2023/03/28 12:24:26;;;;;;;3.50;2.10;;;;;12.70;99423.00;;;;5016172;28;20564;-61
2023/03/28 12:27:37;;;;;;;4.32;1.60;;;;;12.50;99403.00;;;;5015750;28;20042;-60
2023/03/28 12:30:26;;;;;;;1.23;1.10;;;;;12.30;99407.00;;;;5019751;28;20042;-60
2023/03/28 12:33:17;;;;;;;4.15;1.50;;;;;12.50;99407.00;;;;5015825;28;20052;-60
2023/03/28 12:36:03;;;;;;;4.00;2.22;;;;;12.90;99400.00;;;;5034513;28;20045;-61
2023/03/28 12:38:49;;;;;;;7.03;1.77;;;;;13.10;99402.00;;;;5021916;28;20050;-63
2023/03/28 12:41:36;;;;;;;3.67;1.48;;;;;13.20;99394.00;;;;5023303;28;20042;-63
2023/03/28 12:44:12;;;;;;;4.03;1.67;;;;;13.30;99395.00;;;;5036537;28;20057;-61
2023/03/28 12:47:01;;;;;;;4.28;2.63;;;;;13.30;99392.00;;;;5012511;28;20076;-59
2023/03/28 12:49:57;;;;;;;6.35;1.98;;;;;13.30;99385.00;;;;5011892;28;20046;-62
2023/03/28 12:52:26;;;;;;;7.15;1.60;;;;;13.40;99390.00;;;;5006754;28;20054;-62
2023/03/28 12:54:58;;;;;;;2.80;1.60;;;;;13.40;99370.00;;;;5012179;28;20141;-63
2023/03/28 12:57:44;;;;;;;4.40;1.80;;;;;13.30;99378.00;;;;5012109;28;20055;-57
2023/03/28 13:01:08;;;;;;;3.40;1.70;;;;;13.40;99374.00;;;;5015242;28;20378;-60
2023/03/28 13:03:46;;;;;;;4.50;1.60;;;;;13.20;99359.00;;;;5013341;28;20419;-60
2023/03/28 13:06:27;;;;;;;4.43;1.77;;;;;13.20;99369.00;;;;5012288;28;20046;-60
2023/03/28 13:09:44;;;;;;;3.28;1.58;;;;;13.10;99361.00;;;;5012862;28;20053;-60
2023/03/28 13:12:36;;;;;;;2.97;1.40;;;;;13.00;99362.00;;;;5010792;28;20064;-60
2023/03/28 13:15:15;;;;;;;5.03;1.60;;;;;13.10;99355.00;;;;5015095;28;20089;-61
2023/03/28 13:18:26;;;;;;;3.60;1.40;;;;;13.40;99336.00;;;;5016046;28;20042;-60
2023/03/28 13:20:53;;;;;;;4.65;1.85;;;;;13.70;99335.00;;;;5016676;28;20112;-62